createdAt,value
2023-03-06T00:01:06.828Z,4.53
2023-03-06T00:03:34.304Z,3.95
2023-03-06T00:06:01.749Z,5.03
2023-03-06T00:08:29.445Z,4.88
2023-03-06T00:10:56.818Z,4.85
2023-03-06T00:13:23.307Z,4.70
2023-03-06T00:15:50.036Z,5.60
2023-03-06T00:18:16.573Z,5.28
2023-03-06T00:20:43.857Z,5.00
2023-03-06T00:25:38.572Z,5.53
2023-03-06T00:28:06.107Z,4.72
2023-03-06T00:30:32.710Z,5.30
2023-03-06T00:32:59.085Z,5.45
2023-03-06T00:35:25.458Z,5.07
2023-03-06T00:37:52.075Z,5.10
2023-03-06T00:40:20.195Z,5.65
2023-03-06T00:42:47.771Z,5.05
2023-03-06T00:45:14.884Z,5.45
2023-03-06T00:47:41.864Z,4.90
2023-03-06T00:50:10.530Z,6.10
2023-03-06T00:52:37.406Z,5.50
2023-03-06T00:55:04.702Z,5.43
2023-03-06T00:57:31.239Z,5.32
2023-03-06T00:59:57.670Z,5.28
2023-03-06T01:02:24.252Z,5.07
2023-03-06T01:04:50.978Z,6.05
2023-03-06T01:07:17.433Z,5.72
2023-03-06T01:09:43.927Z,4.93
2023-03-06T01:12:10.537Z,5.20
2023-03-06T01:14:36.972Z,5.15
2023-03-06T01:17:03.568Z,5.13
2023-03-06T01:19:30.422Z,5.15
2023-03-06T01:21:56.849Z,4.95
2023-03-06T01:24:25.591Z,5.35
2023-03-06T01:26:52.125Z,5.00
2023-03-06T01:29:18.614Z,5.28
2023-03-06T01:31:45.073Z,5.32
2023-03-06T01:34:11.866Z,4.60
2023-03-06T01:36:38.439Z,5.15
2023-03-06T01:39:04.976Z,5.22
2023-03-06T01:43:59.677Z,4.60
2023-03-06T01:46:29.023Z,5.20
2023-03-06T01:49:10.805Z,5.07
2023-03-06T01:52:00.190Z,6.03
2023-03-06T01:54:31.510Z,5.13
2023-03-06T01:57:11.598Z,5.93
2023-03-06T01:59:40.307Z,6.47
2023-03-06T02:02:10.249Z,5.78
2023-03-06T02:04:39.448Z,5.18
2023-03-06T02:07:08.497Z,5.13
2023-03-06T02:09:36.166Z,5.85
2023-03-06T02:12:07.912Z,5.82
2023-03-06T02:14:34.970Z,5.70
2023-03-06T02:17:01.885Z,4.97
2023-03-06T02:19:38.510Z,5.07
2023-03-06T02:22:05.718Z,5.80
2023-03-06T02:27:05.395Z,5.72
2023-03-06T02:29:32.388Z,5.18
2023-03-06T02:31:58.870Z,5.65
2023-03-06T02:34:25.442Z,4.68
2023-03-06T02:37:03.070Z,4.95
2023-03-06T02:39:33.151Z,5.50
2023-03-06T02:41:59.945Z,5.10
2023-03-06T02:44:27.713Z,5.90
2023-03-06T02:46:54.211Z,4.97
2023-03-06T02:49:20.743Z,5.15
2023-03-06T02:51:47.462Z,4.93
2023-03-06T02:54:13.918Z,4.90
2023-03-06T02:56:40.306Z,4.40
2023-03-06T02:59:06.666Z,4.88
2023-03-06T03:01:33.157Z,4.80
2023-03-06T03:03:59.583Z,4.95
2023-03-06T03:06:26.058Z,4.72
2023-03-06T03:08:52.484Z,4.93
2023-03-06T03:11:18.829Z,5.22
2023-03-06T03:13:45.360Z,4.88
2023-03-06T03:16:15.317Z,4.95
2023-03-06T03:18:47.743Z,5.50
2023-03-06T03:21:14.789Z,5.75
2023-03-06T03:23:41.287Z,4.68
2023-03-06T03:26:13.755Z,4.63
2023-03-06T03:28:40.229Z,4.53
2023-03-06T03:31:09.266Z,5.10
2023-03-06T03:33:35.769Z,4.50
2023-03-06T03:36:04.585Z,4.18
2023-03-06T03:38:31.766Z,4.63
2023-03-06T03:40:58.315Z,4.63
2023-03-06T03:43:24.704Z,5.45
2023-03-06T03:45:53.294Z,5.40
2023-03-06T03:48:20.323Z,5.45
2023-03-06T03:50:46.712Z,5.15
2023-03-06T03:53:13.274Z,5.63
2023-03-06T03:55:39.715Z,6.10
2023-03-06T03:58:06.193Z,4.60
2023-03-06T04:00:32.557Z,5.15
2023-03-06T04:02:59.011Z,6.03
2023-03-06T04:05:25.596Z,5.22
2023-03-06T04:07:52.398Z,5.90
2023-03-06T04:10:18.966Z,5.60
2023-03-06T04:12:45.463Z,5.38
2023-03-06T04:15:11.920Z,5.13
2023-03-06T04:17:38.323Z,5.68
2023-03-06T04:20:05.291Z,4.80
2023-03-06T04:22:31.891Z,5.30
2023-03-06T04:24:58.325Z,4.82
2023-03-06T04:27:24.978Z,5.15
2023-03-06T04:29:51.563Z,4.55
2023-03-06T04:32:20.334Z,5.25
2023-03-06T04:34:47.674Z,4.57
2023-03-06T04:37:24.090Z,5.45
2023-03-06T04:39:50.779Z,5.05
2023-03-06T04:42:17.775Z,4.85
2023-03-06T04:47:11.872Z,5.47
2023-03-06T04:49:38.365Z,5.55
2023-03-06T04:52:05.545Z,5.55
2023-03-06T04:54:32.315Z,4.70
2023-03-06T04:56:58.774Z,5.47
2023-03-06T04:59:25.513Z,5.47
2023-03-06T05:01:52.053Z,4.50
2023-03-06T05:04:18.608Z,5.45
2023-03-06T05:06:45.045Z,5.10
2023-03-06T05:09:11.463Z,4.32
2023-03-06T05:11:37.862Z,4.90
2023-03-06T05:14:04.209Z,4.72
2023-03-06T05:16:30.628Z,4.72
2023-03-06T05:18:57.040Z,5.40
2023-03-06T05:21:23.752Z,5.10
2023-03-06T05:23:50.399Z,5.68
2023-03-06T05:26:16.872Z,4.45
2023-03-06T05:28:43.369Z,5.05
2023-03-06T05:31:10.444Z,4.70
2023-03-06T05:33:37.054Z,4.93
2023-03-06T05:36:03.983Z,4.75
2023-03-06T05:40:58.108Z,5.50
2023-03-06T05:43:24.510Z,5.60
2023-03-06T05:45:52.908Z,5.40
2023-03-06T05:48:19.749Z,5.60
2023-03-06T05:50:46.154Z,6.13
2023-03-06T05:53:12.585Z,6.25
2023-03-06T05:55:39.126Z,5.80
2023-03-06T05:58:05.542Z,4.97
2023-03-06T06:00:31.965Z,5.47
2023-03-06T06:03:01.651Z,5.57
2023-03-06T06:05:28.096Z,5.63
2023-03-06T06:07:54.914Z,5.50
2023-03-06T06:10:21.347Z,5.03
2023-03-06T06:12:47.782Z,5.82
2023-03-06T06:15:15.342Z,6.60
2023-03-06T06:17:41.918Z,5.25
2023-03-06T06:20:09.157Z,6.20
2023-03-06T06:25:03.229Z,5.22
2023-03-06T06:27:30.933Z,5.93
2023-03-06T06:29:57.362Z,6.25
2023-03-06T06:32:23.756Z,6.75
2023-03-06T06:34:50.253Z,6.00
2023-03-06T06:37:16.748Z,7.20
2023-03-06T06:39:43.185Z,6.50
2023-03-06T06:42:29.883Z,5.88
2023-03-06T06:44:56.568Z,6.00
2023-03-06T06:47:25.110Z,6.57
2023-03-06T06:49:53.947Z,5.53
2023-03-06T06:52:20.896Z,6.75
2023-03-06T06:54:47.443Z,6.13
2023-03-06T06:57:14.602Z,5.15
2023-03-06T07:02:07.862Z,5.80
2023-03-06T07:04:34.454Z,6.15
2023-03-06T07:07:01.159Z,6.28
2023-03-06T07:09:27.949Z,6.05
2023-03-06T07:14:21.160Z,6.10
2023-03-06T07:16:47.564Z,5.72
2023-03-06T07:19:14.187Z,6.18
2023-03-06T07:21:40.590Z,6.32
2023-03-06T07:24:07.322Z,6.22
2023-03-06T07:26:34.946Z,6.30
2023-03-06T07:29:02.458Z,6.47
2023-03-06T07:31:29.106Z,6.60
2023-03-06T07:33:55.936Z,5.70
2023-03-06T07:36:23.529Z,6.40
2023-03-06T07:38:50.262Z,7.25
2023-03-06T07:41:19.799Z,6.18
2023-03-06T07:43:48.421Z,7.03
2023-03-06T07:46:15.211Z,7.10
2023-03-06T07:48:42.443Z,7.53
2023-03-06T07:51:14.472Z,7.55
2023-03-06T07:53:40.845Z,7.85
2023-03-06T07:56:09.001Z,7.10
2023-03-06T07:58:36.643Z,7.90
2023-03-06T08:01:07.526Z,7.45
2023-03-06T08:03:34.542Z,7.88
2023-03-06T08:06:12.549Z,7.57
2023-03-06T08:08:40.689Z,7.25
2023-03-06T08:11:09.464Z,7.15
2023-03-06T08:13:36.707Z,7.55
2023-03-06T08:16:03.785Z,6.60
2023-03-06T08:18:30.580Z,7.97
2023-03-06T08:21:04.335Z,7.70
2023-03-06T08:23:31.515Z,7.35
2023-03-06T08:26:04.199Z,8.13
2023-03-06T08:30:58.470Z,7.00
2023-03-06T08:33:24.992Z,7.80
2023-03-06T08:35:52.307Z,7.55
2023-03-06T08:38:19.006Z,8.20
2023-03-06T08:40:45.379Z,8.45
2023-03-06T08:43:14.106Z,8.07
2023-03-06T08:45:40.826Z,7.07
2023-03-06T08:48:07.400Z,7.82
2023-03-06T08:50:34.040Z,9.18
2023-03-06T08:53:00.738Z,8.48
2023-03-06T08:55:28.158Z,9.23
2023-03-06T08:57:54.656Z,10.10
2023-03-06T09:00:21.450Z,8.50
2023-03-06T09:02:47.874Z,9.90
2023-03-06T09:05:14.380Z,8.75
2023-03-06T09:10:08.451Z,9.10
2023-03-06T09:12:48.807Z,9.20
2023-03-06T09:15:18.153Z,8.63
2023-03-06T09:17:44.745Z,9.80
2023-03-06T09:20:12.521Z,9.98
2023-03-06T09:22:39.219Z,8.70
2023-03-06T09:25:06.475Z,9.05
2023-03-06T09:29:59.900Z,9.32
2023-03-06T09:32:27.710Z,8.32
2023-03-06T09:34:54.334Z,8.70
2023-03-06T09:37:20.861Z,9.27
2023-03-06T09:39:48.341Z,8.55
2023-03-06T09:42:21.448Z,8.63
2023-03-06T09:44:56.632Z,9.40
2023-03-06T09:47:40.928Z,8.85
2023-03-06T09:50:13.512Z,8.75
2023-03-06T09:52:43.509Z,8.75
2023-03-06T09:55:17.822Z,7.15
2023-03-06T09:58:13.229Z,10.07
2023-03-06T10:00:43.080Z,7.47
2023-03-06T10:03:15.650Z,7.00
2023-03-06T10:05:47.163Z,8.45
2023-03-06T10:08:19.703Z,7.22
2023-03-06T10:10:57.728Z,11.77
2023-03-06T10:13:43.037Z,10.57
2023-03-06T10:16:25.573Z,7.90
2023-03-06T10:18:53.178Z,8.65
2023-03-06T10:21:38.288Z,8.40
2023-03-06T10:24:29.626Z,8.07
2023-03-06T10:30:02.093Z,7.05
2023-03-06T10:32:49.484Z,6.38
2023-03-06T10:35:41.997Z,6.05
2023-03-06T10:38:37.377Z,6.65
2023-03-06T10:41:08.622Z,6.00
2023-03-06T10:43:36.715Z,6.15
2023-03-06T10:46:05.284Z,7.88
2023-03-06T10:48:35.980Z,7.47
2023-03-06T10:51:22.523Z,7.10
2023-03-06T10:53:57.124Z,7.28
2023-03-06T10:56:37.970Z,7.80
2023-03-06T10:59:17.902Z,6.78
2023-03-06T11:01:48.060Z,6.03
2023-03-06T11:04:23.935Z,6.43
2023-03-06T11:07:15.533Z,7.18
2023-03-06T11:09:59.463Z,6.70
2023-03-06T11:12:32.271Z,7.88
2023-03-06T11:15:21.078Z,12.73
2023-03-06T11:18:07.443Z,10.23
2023-03-06T11:20:51.433Z,8.00
2023-03-06T11:23:29.075Z,8.02
2023-03-06T11:26:02.493Z,8.82
2023-03-06T11:28:33.394Z,7.88
2023-03-06T11:30:59.848Z,8.35
2023-03-06T11:33:34.045Z,7.82
2023-03-06T11:36:30.292Z,7.00
2023-03-06T11:38:56.776Z,7.90
2023-03-06T11:41:33.644Z,7.05
2023-03-06T11:44:16.920Z,8.48
2023-03-06T11:46:50.558Z,8.00
2023-03-06T11:49:24.603Z,7.45
2023-03-06T11:52:06.238Z,6.25
2023-03-06T11:54:33.571Z,7.82
2023-03-06T11:57:17.186Z,7.15
2023-03-06T11:59:54.527Z,6.68
2023-03-06T12:02:57.889Z,6.43
2023-03-06T12:08:12.999Z,6.90
2023-03-06T12:10:51.978Z,6.47
2023-03-06T12:13:31.129Z,5.63
2023-03-06T12:16:24.339Z,6.45
2023-03-06T12:18:56.774Z,5.95
2023-03-06T12:21:47.626Z,6.40
2023-03-06T12:24:26.205Z,6.22
2023-03-06T12:27:01.703Z,6.00
2023-03-06T12:29:56.084Z,5.30
2023-03-06T12:32:49.375Z,6.18
2023-03-06T12:35:15.843Z,5.75
2023-03-06T12:37:42.313Z,6.65
2023-03-06T12:40:27.720Z,4.57
2023-03-06T12:43:25.188Z,5.43
2023-03-06T12:45:57.590Z,4.60
2023-03-06T12:48:29.180Z,4.82
2023-03-06T12:50:56.592Z,4.60
2023-03-06T12:53:29.483Z,4.45
2023-03-06T12:55:58.110Z,4.07
2023-03-06T12:58:30.607Z,4.10
2023-03-06T13:01:08.047Z,4.28
2023-03-06T13:03:56.290Z,4.57
2023-03-06T13:06:59.800Z,4.10
2023-03-06T13:09:45.000Z,4.28
2023-03-06T13:15:27.668Z,5.03
2023-03-06T13:17:54.732Z,4.35
2023-03-06T13:20:40.604Z,4.68
2023-03-06T13:23:29.002Z,5.57
2023-03-06T13:26:03.396Z,4.30
2023-03-06T13:28:49.818Z,4.95
2023-03-06T13:31:48.172Z,5.15
2023-03-06T13:34:38.103Z,4.30
2023-03-06T13:37:13.720Z,4.47
2023-03-06T13:39:58.463Z,4.68
2023-03-06T13:42:45.164Z,4.53
2023-03-06T13:45:24.730Z,4.18
2023-03-06T13:48:37.588Z,5.00
2023-03-06T13:50:48.217Z,4.90
2023-03-06T13:53:41.258Z,4.63
2023-03-06T13:56:25.775Z,4.38
2023-03-06T13:59:13.821Z,4.95
2023-03-06T14:01:45.084Z,5.03
2023-03-06T14:04:36.731Z,5.05
2023-03-06T14:07:28.803Z,4.57
2023-03-06T14:10:25.785Z,5.70
2023-03-06T14:13:02.949Z,5.05
2023-03-06T14:15:55.876Z,5.57
2023-03-06T14:18:26.214Z,5.03
2023-03-06T14:21:05.350Z,5.03
2023-03-06T14:26:19.420Z,4.60
2023-03-06T14:28:58.465Z,5.03
2023-03-06T14:31:31.999Z,5.57
2023-03-06T14:34:15.853Z,5.03
2023-03-06T14:36:43.962Z,5.70
2023-03-06T14:39:17.537Z,5.53
2023-03-06T14:41:44.006Z,5.53
2023-03-06T14:44:26.307Z,5.32
2023-03-06T14:46:55.992Z,5.65
2023-03-06T14:49:25.315Z,5.13
2023-03-06T14:52:00.517Z,5.82
2023-03-06T14:54:34.083Z,7.38
2023-03-06T14:57:08.410Z,6.90
2023-03-06T14:59:41.922Z,5.45
2023-03-06T15:02:15.441Z,6.22
2023-03-06T15:04:46.692Z,6.15
2023-03-06T15:07:17.928Z,5.28
2023-03-06T15:09:48.685Z,5.70
2023-03-06T15:12:20.825Z,6.90
2023-03-06T15:15:00.816Z,5.85
2023-03-06T15:17:27.369Z,5.40
2023-03-06T15:19:59.486Z,5.38
2023-03-06T15:22:30.648Z,6.20
2023-03-06T15:25:18.956Z,5.32
2023-03-06T15:27:51.244Z,5.85
2023-03-06T15:30:36.394Z,5.57
2023-03-06T15:33:26.201Z,5.80
2023-03-06T15:35:57.266Z,5.97
2023-03-06T15:38:40.578Z,5.95
2023-03-06T15:41:21.476Z,6.00
2023-03-06T15:43:47.950Z,6.47
2023-03-06T15:46:14.486Z,6.50
2023-03-06T15:48:53.547Z,5.93
2023-03-06T15:51:20.512Z,5.97
2023-03-06T15:53:47.034Z,6.93
2023-03-06T15:56:13.437Z,5.60
2023-03-06T15:58:42.595Z,5.78
2023-03-06T16:01:17.305Z,5.28
2023-03-06T16:03:47.967Z,5.28
2023-03-06T16:06:19.395Z,4.78
2023-03-06T16:08:46.056Z,6.03
2023-03-06T16:11:20.412Z,5.30
2023-03-06T16:13:46.982Z,5.90
2023-03-06T16:16:19.242Z,5.32
2023-03-06T16:18:46.241Z,5.72
2023-03-06T16:21:12.776Z,6.72
2023-03-06T16:23:40.028Z,6.38
2023-03-06T16:26:18.478Z,6.00
2023-03-06T16:28:45.888Z,9.57
2023-03-06T16:31:13.988Z,7.65
2023-03-06T16:33:41.934Z,6.78
2023-03-06T16:36:13.764Z,5.88
2023-03-06T16:38:40.369Z,7.35
2023-03-06T16:41:06.790Z,5.68
2023-03-06T16:43:33.194Z,7.38
2023-03-06T16:45:59.765Z,5.68
2023-03-06T16:48:26.268Z,6.18
2023-03-06T16:50:53.242Z,6.40
2023-03-06T16:53:19.745Z,5.93
2023-03-06T16:55:46.399Z,5.82
2023-03-06T16:58:12.979Z,6.03
2023-03-06T17:00:39.483Z,6.63
2023-03-06T17:03:06.516Z,6.07
2023-03-06T17:05:37.929Z,5.70
2023-03-06T17:08:04.792Z,7.40
2023-03-06T17:10:31.827Z,6.63
2023-03-06T17:12:58.234Z,6.10
2023-03-06T17:15:24.704Z,5.60
2023-03-06T17:17:52.240Z,5.80
2023-03-06T17:20:19.534Z,5.57
2023-03-06T17:22:45.994Z,6.22
2023-03-06T17:25:12.585Z,6.20
2023-03-06T17:27:38.938Z,6.32
2023-03-06T17:30:06.667Z,5.88
2023-03-06T17:32:34.042Z,5.70
2023-03-06T17:35:00.497Z,4.95
2023-03-06T17:37:27.032Z,5.85
2023-03-06T17:39:53.654Z,6.07
2023-03-06T17:42:20.221Z,6.45
2023-03-06T17:44:47.829Z,6.55
2023-03-06T17:47:14.405Z,6.68
2023-03-06T17:49:40.763Z,6.50
2023-03-06T17:52:07.399Z,7.30
2023-03-06T17:54:34.370Z,5.70
2023-03-06T17:57:03.460Z,5.50
2023-03-06T17:59:33.758Z,5.28
2023-03-06T18:02:00.985Z,5.00
2023-03-06T18:04:28.131Z,5.25
2023-03-06T18:09:21.023Z,5.22
2023-03-06T18:11:47.402Z,5.95
2023-03-06T18:14:14.117Z,6.10
2023-03-06T18:16:41.361Z,5.63
2023-03-06T18:19:10.855Z,4.63
2023-03-06T18:21:38.423Z,5.47
2023-03-06T18:24:05.185Z,5.35
2023-03-06T18:26:32.106Z,6.13
2023-03-06T18:29:01.378Z,5.53
2023-03-06T18:31:34.176Z,5.82
2023-03-06T18:36:31.959Z,5.45
2023-03-06T18:38:59.147Z,6.68
2023-03-06T18:41:25.747Z,6.97
2023-03-06T18:43:54.388Z,6.95
2023-03-06T18:46:21.626Z,5.78
2023-03-06T18:48:48.164Z,6.35
2023-03-06T18:51:15.096Z,7.45
2023-03-06T18:53:42.317Z,6.35
2023-03-06T18:56:13.267Z,7.03
2023-03-06T18:58:40.085Z,7.28
2023-03-06T19:01:07.486Z,7.07
2023-03-06T19:03:34.428Z,7.28
2023-03-06T19:06:08.921Z,6.75
2023-03-06T19:08:37.146Z,7.20
2023-03-06T19:11:09.236Z,6.82
2023-03-06T19:13:36.118Z,6.93
2023-03-06T19:16:03.196Z,6.93
2023-03-06T19:18:30.170Z,7.00
2023-03-06T19:21:07.700Z,6.85
2023-03-06T19:23:34.261Z,7.35
2023-03-06T19:26:00.686Z,6.47
2023-03-06T19:28:27.289Z,6.47
2023-03-06T19:30:53.854Z,6.05
2023-03-06T19:33:20.329Z,5.78
2023-03-06T19:35:47.759Z,6.18
2023-03-06T19:38:15.461Z,5.00
2023-03-06T19:40:49.000Z,5.55
2023-03-06T19:43:15.510Z,5.68
2023-03-06T19:45:43.773Z,5.50
2023-03-06T19:48:12.441Z,4.88
2023-03-06T19:50:40.510Z,5.18
2023-03-06T19:53:08.268Z,4.80
2023-03-06T19:55:35.029Z,4.63
2023-03-06T19:58:01.728Z,5.53
2023-03-06T20:00:28.369Z,4.80
2023-03-06T20:02:55.625Z,4.85
2023-03-06T20:05:22.311Z,5.68
2023-03-06T20:07:49.527Z,5.18
2023-03-06T20:10:16.314Z,5.55
2023-03-06T20:12:42.757Z,5.75
2023-03-06T20:15:09.672Z,4.72
2023-03-06T20:17:40.372Z,5.60
2023-03-06T20:20:10.463Z,4.70
2023-03-06T20:22:37.158Z,5.25
2023-03-06T20:25:04.555Z,5.32
2023-03-06T20:27:31.296Z,5.68
2023-03-06T20:29:57.793Z,5.55
2023-03-06T20:32:24.258Z,5.40
2023-03-06T20:34:50.690Z,5.47
2023-03-06T20:37:17.277Z,5.82
2023-03-06T20:39:43.708Z,5.80
2023-03-06T20:42:10.160Z,5.53
2023-03-06T20:44:36.582Z,4.82
2023-03-06T20:47:03.205Z,5.00
2023-03-06T20:49:29.717Z,5.00
2023-03-06T20:51:56.575Z,5.20
2023-03-06T20:54:23.230Z,5.60
2023-03-06T20:56:50.155Z,5.90
2023-03-06T20:59:16.962Z,5.80
2023-03-06T21:01:45.873Z,4.90
2023-03-06T21:04:13.996Z,5.55
2023-03-06T21:06:45.182Z,5.90
2023-03-06T21:09:12.933Z,5.68
2023-03-06T21:11:39.470Z,5.22
2023-03-06T21:14:06.945Z,5.72
2023-03-06T21:16:33.649Z,6.40
2023-03-06T21:19:00.789Z,5.50
2023-03-06T21:23:55.839Z,5.40
2023-03-06T21:26:24.546Z,5.53
2023-03-06T21:28:51.336Z,6.43
2023-03-06T21:31:19.826Z,6.50
2023-03-06T21:33:48.588Z,5.95
2023-03-06T21:36:15.720Z,6.35
2023-03-06T21:38:42.153Z,6.05
2023-03-06T21:41:15.062Z,6.70
2023-03-06T21:43:41.762Z,7.68
2023-03-06T21:46:09.195Z,6.38
2023-03-06T21:48:35.685Z,6.60
2023-03-06T21:51:07.921Z,6.90
2023-03-06T21:53:34.750Z,7.10
2023-03-06T21:56:02.026Z,8.20
2023-03-06T21:58:29.724Z,7.13
2023-03-06T22:00:56.571Z,7.03
2023-03-06T22:03:23.088Z,7.70
2023-03-06T22:05:49.464Z,7.72
2023-03-06T22:08:15.983Z,9.35
2023-03-06T22:10:42.551Z,8.43
2023-03-06T22:13:09.299Z,7.88
2023-03-06T22:15:36.804Z,8.15
2023-03-06T22:18:03.374Z,7.72
2023-03-06T22:20:29.887Z,7.47
2023-03-06T22:22:57.018Z,8.68
2023-03-06T22:27:50.073Z,7.85
2023-03-06T22:30:17.733Z,7.22
2023-03-06T22:32:44.206Z,8.18
2023-03-06T22:35:10.676Z,8.52
2023-03-06T22:37:37.274Z,7.88
2023-03-06T22:40:03.977Z,9.40
2023-03-06T22:42:30.519Z,8.18
2023-03-06T22:44:56.898Z,7.97
2023-03-06T22:47:23.252Z,8.90
2023-03-06T22:49:49.682Z,8.48
2023-03-06T22:52:19.367Z,8.88
2023-03-06T22:54:45.853Z,7.65
2023-03-06T22:57:12.284Z,7.60
2023-03-06T22:59:38.665Z,7.50
2023-03-06T23:02:05.180Z,8.60
2023-03-06T23:04:31.729Z,7.55
2023-03-06T23:06:58.138Z,8.50
2023-03-06T23:09:25.435Z,8.90
2023-03-06T23:11:52.385Z,8.13
2023-03-06T23:14:19.909Z,7.38
2023-03-06T23:16:46.387Z,8.35
2023-03-06T23:19:12.871Z,7.38
2023-03-06T23:21:39.383Z,7.32
2023-03-06T23:24:06.858Z,8.50
2023-03-06T23:26:37.006Z,7.53
2023-03-06T23:29:04.232Z,8.05
2023-03-06T23:31:31.503Z,7.85
2023-03-06T23:34:02.497Z,7.45
2023-03-06T23:36:30.191Z,7.25
2023-03-06T23:38:57.428Z,7.10
2023-03-06T23:41:24.698Z,8.00
2023-03-06T23:43:54.949Z,7.20
2023-03-06T23:46:21.785Z,6.90
2023-03-06T23:48:48.218Z,7.32
2023-03-06T23:51:19.941Z,7.03
2023-03-06T23:53:48.312Z,7.65
2023-03-06T23:56:15.294Z,7.05
2023-03-06T23:58:41.786Z,6.82
